Atlantic City, NJ

3:06 AM EST on January 18, 2017 (GMT -0500)
MATLN4 | | Change Station

Elev 0 ft 39.38 °N, 74.42 °W | Updated 50 minutes ago

Overcast
Overcast
45.0 °F
Feels Like 42 °F
N
5.0
Wind Variable Wind from WSW
Gusts 6.0 mph

Today
High -- | Low -- °F
--% Chance of Precip.
Yesterday
High -- | Low -- °F
Precip. -- in
Pressure 29.87 in
Visibility 0.2 miles
Clouds Mostly Cloudy 200 ft
Overcast 1800 ft
Windchill 42 °F
Dew Point 43 °F
Humidity 92%
Rainfall 0.21 in
Snow Depth Not available.
7:14 AM 5:02 PM
Waning Gibbous, 65% visible
METAR KACY 180754Z 35003KT 1/4SM FG BKN002 OVC018 07/06 A2987 RMK AO2 TWR VIS 1/2 SLP114 T00720061
Pressure 29.87 in
Visibility 0.2 miles
Clouds Mostly Cloudy 200 ft
Overcast 1800 ft
Windchill 42 °F
Dew Point 43 °F
Humidity 92%
Rainfall 0.21 in
Snow Depth Not available.
7:14 AM 5:02 PM
Waning Gibbous, 65% visible
METAR KACY 180754Z 35003KT 1/4SM FG BKN002 OVC018 07/06 A2987 RMK AO2 TWR VIS 1/2 SLP114 T00720061

Get Your Daily Forecast Email!

Thanks for signing up!

Be on the lookout for a verification email in your inbox.

You'll start receiving the daily forecast at 8 AM.

×

10-Day Weather Forecast

Almanac

Astronomy

Jan. 18, 2017 Rise Set
Actual Time
Civil Twilight
Nautical Twilight
Astronomical Twilight
Moon
Length of Visible Light
Length of Day
Tomorrow will be .
, % of the Moon is Illuminated

Today's Extremes

State Highs State Lows

Community

WunderPhotos

Upload Photos

1,962,540 photos uploaded!

WunderBlog® & News

Nearby

Air Quality

  Air Quality AQ Index Pollutant
Not available.

Snow Depth

Station Depth Elevation

Earthquake Activity

City Distance Mag. Time & Date
Minimum magnitude displayed is 2.5.

Coastal Water Temperatures

Place Temperature

Stations

Nearby Weather Stations

Station Location Temp. Windchill Dew Point Humidity Wind Precip. Elev Updated Type
                   

Watches & Warnings

There are currently no watches in effect.